createdAt,value
2023-07-27T00:00:28.953Z,25.94
2023-07-27T00:02:56.570Z,25.89
2023-07-27T00:05:24.342Z,25.98
2023-07-27T00:07:51.933Z,26.00
2023-07-27T00:10:21.314Z,25.87
2023-07-27T00:12:48.970Z,25.86
2023-07-27T00:15:16.564Z,26.16
2023-07-27T00:17:44.215Z,26.18
2023-07-27T00:20:12.479Z,26.12
2023-07-27T00:22:40.120Z,25.87
2023-07-27T00:25:08.148Z,25.95
2023-07-27T00:27:35.679Z,25.92
2023-07-27T00:30:03.479Z,25.65
2023-07-27T00:32:31.146Z,25.55
2023-07-27T00:34:58.683Z,25.52
2023-07-27T00:37:27.456Z,25.78
2023-07-27T00:39:54.958Z,25.50
2023-07-27T00:42:22.906Z,25.17
2023-07-27T00:44:50.544Z,25.24
2023-07-27T00:47:19.011Z,25.19
2023-07-27T00:49:46.520Z,25.39
2023-07-27T00:52:14.314Z,25.15
2023-07-27T00:54:42.046Z,25.05
2023-07-27T00:57:09.706Z,25.08
2023-07-27T00:59:37.461Z,25.03
2023-07-27T01:02:06.070Z,25.03
2023-07-27T01:04:33.603Z,24.98
2023-07-27T01:07:01.215Z,24.98
2023-07-27T01:09:29.280Z,24.95
2023-07-27T01:11:56.745Z,25.05
2023-07-27T01:14:31.003Z,25.18
2023-07-27T01:17:34.066Z,25.09
2023-07-27T01:20:44.250Z,24.99
2023-07-27T01:23:59.079Z,25.14
2023-07-27T01:27:09.530Z,24.76
2023-07-27T01:29:57.628Z,24.85
2023-07-27T01:32:30.204Z,24.87
2023-07-27T01:35:02.112Z,25.13
2023-07-27T01:37:31.945Z,24.77
2023-07-27T01:40:02.614Z,25.01
2023-07-27T01:42:32.732Z,25.16
2023-07-27T01:45:01.134Z,25.33
2023-07-27T01:47:30.152Z,24.93
2023-07-27T01:49:59.426Z,24.87
2023-07-27T01:52:28.567Z,24.93
2023-07-27T01:54:58.989Z,24.72
2023-07-27T01:57:26.924Z,24.92
2023-07-27T01:59:56.022Z,24.60
2023-07-27T02:02:24.829Z,24.60
2023-07-27T02:04:54.250Z,24.85
2023-07-27T02:07:21.945Z,24.48
2023-07-27T02:09:50.542Z,24.66
2023-07-27T02:12:28.333Z,24.62
2023-07-27T02:15:04.261Z,24.73
2023-07-27T02:17:49.810Z,24.53
2023-07-27T02:20:18.528Z,24.69
2023-07-27T02:22:48.143Z,24.57
2023-07-27T02:25:16.096Z,24.53
2023-07-27T02:27:45.930Z,24.58
2023-07-27T02:30:13.864Z,24.56
2023-07-27T02:32:41.606Z,24.31
2023-07-27T02:35:09.962Z,24.26
2023-07-27T02:37:37.959Z,24.24
2023-07-27T02:40:06.417Z,24.18
2023-07-27T02:42:34.571Z,23.91
2023-07-27T02:45:03.106Z,24.19
2023-07-27T02:47:36.392Z,24.25
2023-07-27T02:50:04.030Z,24.17
2023-07-27T02:52:34.356Z,24.32
2023-07-27T02:55:05.728Z,24.41
2023-07-27T02:57:33.760Z,24.59
2023-07-27T03:00:02.087Z,24.28
2023-07-27T03:02:31.581Z,24.17
2023-07-27T03:05:01.006Z,24.19
2023-07-27T03:07:29.697Z,24.26
2023-07-27T03:09:57.373Z,24.27
2023-07-27T03:12:24.966Z,23.97
2023-07-27T03:14:52.659Z,23.82
2023-07-27T03:17:21.086Z,24.23
2023-07-27T03:19:48.967Z,24.34
2023-07-27T03:22:16.521Z,24.05
2023-07-27T03:24:44.153Z,24.13
2023-07-27T03:27:12.359Z,24.18
2023-07-27T03:29:40.133Z,24.26
2023-07-27T03:32:08.313Z,23.99
2023-07-27T03:34:35.813Z,23.88
2023-07-27T03:37:03.401Z,24.10
2023-07-27T03:39:31.026Z,24.05
2023-07-27T03:41:58.637Z,24.15
2023-07-27T03:44:29.117Z,23.99
2023-07-27T03:46:56.870Z,23.98
2023-07-27T03:49:24.433Z,24.00
2023-07-27T03:51:52.282Z,24.04
2023-07-27T03:54:20.006Z,23.98
2023-07-27T03:56:47.637Z,23.77
2023-07-27T03:59:15.247Z,23.97
2023-07-27T04:01:42.828Z,24.00
2023-07-27T04:04:10.425Z,23.94
2023-07-27T04:06:38.017Z,24.17
2023-07-27T04:09:05.581Z,24.24
2023-07-27T04:11:36.232Z,23.97
2023-07-27T04:14:04.289Z,24.10
2023-07-27T04:16:32.543Z,23.96
2023-07-27T04:19:00.641Z,24.06
2023-07-27T04:21:28.242Z,23.83
2023-07-27T04:23:56.225Z,23.90
2023-07-27T04:26:23.890Z,23.83
2023-07-27T04:28:51.391Z,23.57
2023-07-27T04:31:18.990Z,23.57
2023-07-27T04:33:46.637Z,23.92
2023-07-27T04:36:14.327Z,23.86
2023-07-27T04:38:41.874Z,23.84
2023-07-27T04:41:09.470Z,24.10
2023-07-27T04:43:36.945Z,23.86
2023-07-27T04:46:04.669Z,24.21
2023-07-27T04:48:32.729Z,24.01
2023-07-27T04:51:00.430Z,23.90
2023-07-27T04:53:28.164Z,23.97
2023-07-27T04:55:55.734Z,23.83
2023-07-27T04:58:23.220Z,23.76
2023-07-27T05:00:58.993Z,23.74
2023-07-27T05:03:26.462Z,23.85
2023-07-27T05:05:54.696Z,23.75
2023-07-27T05:08:22.234Z,23.83
2023-07-27T05:10:49.811Z,23.73
2023-07-27T05:13:17.437Z,24.03
2023-07-27T05:15:46.105Z,24.19
2023-07-27T05:18:15.726Z,24.17
2023-07-27T05:20:45.094Z,24.39
2023-07-27T05:23:12.733Z,24.46
2023-07-27T05:25:40.311Z,24.48
2023-07-27T05:28:07.900Z,24.53
2023-07-27T05:30:35.453Z,24.64
2023-07-27T05:33:03.072Z,24.65
2023-07-27T05:35:31.092Z,24.47
2023-07-27T05:37:58.623Z,24.30
2023-07-27T05:40:26.263Z,24.37
2023-07-27T05:42:53.908Z,24.52
2023-07-27T05:45:21.570Z,24.46
2023-07-27T05:47:49.129Z,24.70
2023-07-27T05:50:17.531Z,24.59
2023-07-27T05:52:45.063Z,24.47
2023-07-27T05:55:12.809Z,24.27
2023-07-27T05:57:43.180Z,24.46
2023-07-27T06:00:11.402Z,24.53
2023-07-27T06:02:39.053Z,24.71
2023-07-27T06:05:07.395Z,24.67
2023-07-27T06:07:35.049Z,24.67
2023-07-27T06:10:02.667Z,24.70
2023-07-27T06:12:30.309Z,24.79
2023-07-27T06:14:58.352Z,24.62
2023-07-27T06:17:28.593Z,24.72
2023-07-27T06:19:56.317Z,24.91
2023-07-27T06:22:23.872Z,25.05
2023-07-27T06:24:51.490Z,25.29
2023-07-27T06:27:19.224Z,25.18
2023-07-27T06:29:47.315Z,25.29
2023-07-27T06:32:15.411Z,25.28
2023-07-27T06:34:43.146Z,25.15
2023-07-27T06:37:11.090Z,25.32
2023-07-27T06:39:39.479Z,25.18
2023-07-27T06:42:07.587Z,25.24
2023-07-27T06:44:35.833Z,25.18
2023-07-27T06:47:05.288Z,25.10
2023-07-27T06:49:34.823Z,25.12
2023-07-27T06:52:02.689Z,25.35
2023-07-27T06:54:30.444Z,25.40
2023-07-27T06:56:58.490Z,25.03
2023-07-27T06:59:27.993Z,24.95
2023-07-27T07:01:58.663Z,24.86
2023-07-27T07:04:26.204Z,24.83
2023-07-27T07:06:53.913Z,24.71
2023-07-27T07:09:22.878Z,24.72
2023-07-27T07:11:50.501Z,24.46
2023-07-27T07:14:18.339Z,24.17
2023-07-27T07:16:46.239Z,24.47
2023-07-27T07:19:14.304Z,24.57
2023-07-27T07:21:41.872Z,24.92
2023-07-27T07:24:09.792Z,25.08
2023-07-27T07:26:38.208Z,25.22
2023-07-27T07:29:06.899Z,25.52
2023-07-27T07:31:34.664Z,25.80
2023-07-27T07:34:02.227Z,25.95
2023-07-27T07:36:29.947Z,26.20
2023-07-27T07:38:57.523Z,26.19
2023-07-27T07:41:25.564Z,26.10
2023-07-27T07:43:53.111Z,26.20
2023-07-27T07:46:22.814Z,26.19
2023-07-27T07:48:50.592Z,26.36
2023-07-27T07:51:18.718Z,26.44
2023-07-27T07:53:47.993Z,26.59
2023-07-27T07:56:18.070Z,26.84
2023-07-27T07:58:46.294Z,26.86
2023-07-27T08:01:14.646Z,26.74
2023-07-27T08:03:42.873Z,26.59
2023-07-27T08:06:13.656Z,26.52
2023-07-27T08:08:41.177Z,26.26
2023-07-27T08:11:13.313Z,25.99
2023-07-27T08:13:41.200Z,25.98
2023-07-27T08:16:08.963Z,26.05
2023-07-27T08:18:36.578Z,25.83
2023-07-27T08:21:07.108Z,25.79
2023-07-27T08:23:35.035Z,25.52
2023-07-27T08:26:04.656Z,25.29
2023-07-27T08:28:33.250Z,25.07
2023-07-27T08:31:04.574Z,25.10
2023-07-27T08:33:33.448Z,24.86
2023-07-27T08:36:04.069Z,24.51
2023-07-27T08:38:32.664Z,24.28
2023-07-27T08:41:02.720Z,24.30
2023-07-27T08:43:30.883Z,24.36
2023-07-27T08:45:59.990Z,24.45
2023-07-27T08:48:29.895Z,24.44
2023-07-27T08:51:00.782Z,24.45
2023-07-27T08:53:28.659Z,24.27
2023-07-27T08:55:56.690Z,24.12
2023-07-27T08:58:24.301Z,24.28
2023-07-27T09:00:51.909Z,24.11
2023-07-27T09:03:20.034Z,24.11
2023-07-27T09:06:00.599Z,24.03
2023-07-27T09:08:30.419Z,24.11
2023-07-27T09:11:13.491Z,23.91
2023-07-27T09:13:42.170Z,23.85
2023-07-27T09:16:11.093Z,23.67
2023-07-27T09:18:41.491Z,23.42
2023-07-27T09:21:11.033Z,23.12
2023-07-27T09:23:40.391Z,23.06
2023-07-27T09:26:08.166Z,22.92
2023-07-27T09:28:36.205Z,22.82
2023-07-27T09:31:06.286Z,22.63
2023-07-27T09:33:34.407Z,22.69
2023-07-27T09:36:04.991Z,22.54
2023-07-27T09:38:32.978Z,22.66
2023-07-27T09:41:08.681Z,22.84
2023-07-27T09:43:42.227Z,23.05
2023-07-27T09:46:10.630Z,23.28
2023-07-27T09:48:39.413Z,23.75
2023-07-27T09:51:09.959Z,24.57
2023-07-27T09:53:38.654Z,25.00
2023-07-27T09:56:07.747Z,25.42
2023-07-27T09:58:41.171Z,25.79
2023-07-27T10:01:10.233Z,26.32
2023-07-27T10:03:38.181Z,26.71
2023-07-27T10:06:08.196Z,26.94
2023-07-27T10:08:36.322Z,26.98
2023-07-27T10:11:03.850Z,27.44
2023-07-27T10:13:31.416Z,27.96
2023-07-27T10:16:02.847Z,28.01
2023-07-27T10:18:33.115Z,28.50
2023-07-27T10:21:31.848Z,28.73
2023-07-27T10:24:05.564Z,28.77
2023-07-27T10:26:45.667Z,29.12
2023-07-27T10:29:19.775Z,29.08
2023-07-27T10:32:04.349Z,29.19
2023-07-27T10:34:41.264Z,29.36
2023-07-27T10:37:15.711Z,29.53
2023-07-27T10:39:52.499Z,29.58
2023-07-27T10:42:24.374Z,29.84
2023-07-27T10:44:57.245Z,30.12
2023-07-27T10:47:39.620Z,30.39
2023-07-27T10:50:08.386Z,30.42
2023-07-27T10:52:38.657Z,30.38
2023-07-27T10:55:08.518Z,30.46
2023-07-27T10:57:37.024Z,30.65
2023-07-27T11:00:06.616Z,31.00
2023-07-27T11:02:37.160Z,31.10
2023-07-27T11:05:07.852Z,31.42
2023-07-27T11:07:40.682Z,31.22
2023-07-27T11:10:11.169Z,31.58
2023-07-27T11:12:59.016Z,31.58
2023-07-27T11:15:33.086Z,31.47
2023-07-27T11:18:01.437Z,31.22
2023-07-27T11:20:32.719Z,31.10
2023-07-27T11:23:01.362Z,31.16
2023-07-27T11:25:36.424Z,31.62
2023-07-27T11:28:06.599Z,31.82
2023-07-27T11:30:38.198Z,32.00
2023-07-27T11:33:07.696Z,31.75
2023-07-27T11:35:46.598Z,31.36
2023-07-27T11:38:14.644Z,31.51
2023-07-27T11:40:47.652Z,31.17
2023-07-27T11:43:15.406Z,30.81
2023-07-27T11:45:46.431Z,31.13
2023-07-27T11:48:17.865Z,31.14
2023-07-27T11:50:45.681Z,31.17
2023-07-27T11:53:19.827Z,31.07
2023-07-27T11:55:58.629Z,31.01
2023-07-27T11:58:31.392Z,30.92
2023-07-27T12:00:59.233Z,31.02
2023-07-27T12:03:32.555Z,31.03
2023-07-27T12:06:04.342Z,30.80
2023-07-27T12:13:59.460Z,30.78
2023-07-27T12:17:01.194Z,30.88
2023-07-27T12:21:48.670Z,30.55
2023-07-27T12:34:28.374Z,30.77
2023-07-27T12:39:29.534Z,30.53
2023-07-27T12:44:28.693Z,30.69
2023-07-27T12:46:56.287Z,30.77
2023-07-27T12:49:25.413Z,30.84
2023-07-27T12:51:53.857Z,30.86
2023-07-27T12:54:22.686Z,30.85
2023-07-27T12:56:51.290Z,30.96
2023-07-27T12:59:20.177Z,30.90
2023-07-27T13:01:48.953Z,30.95
2023-07-27T13:04:18.072Z,31.09
2023-07-27T13:06:47.615Z,31.05
2023-07-27T13:09:17.188Z,31.13
2023-07-27T13:11:46.220Z,31.03
2023-07-27T13:14:14.716Z,31.17
2023-07-27T13:16:43.509Z,31.07
2023-07-27T13:19:12.146Z,30.96
2023-07-27T13:21:41.554Z,30.53
2023-07-27T13:24:09.968Z,30.78
2023-07-27T13:26:41.323Z,30.98
2023-07-27T13:29:10.436Z,31.02
2023-07-27T13:31:39.224Z,30.94
2023-07-27T13:34:09.118Z,30.98
2023-07-27T13:36:39.601Z,30.93
2023-07-27T13:39:09.698Z,31.10
2023-07-27T13:41:38.163Z,31.12
2023-07-27T13:44:06.904Z,31.17
2023-07-27T13:46:35.669Z,31.32
2023-07-27T13:49:04.295Z,31.32
2023-07-27T13:51:33.250Z,31.01
2023-07-27T13:54:03.268Z,31.26
2023-07-27T13:56:32.478Z,31.23
2023-07-27T13:59:01.407Z,31.32
2023-07-27T14:01:33.235Z,31.14
2023-07-27T14:04:02.264Z,31.32
2023-07-27T14:06:30.957Z,31.71
2023-07-27T14:09:00.465Z,31.87
2023-07-27T14:11:31.019Z,31.85
2023-07-27T14:13:59.531Z,32.01
2023-07-27T14:16:28.775Z,31.82
2023-07-27T14:18:57.216Z,31.80
2023-07-27T14:21:26.905Z,31.76
2023-07-27T14:23:55.407Z,31.64
2023-07-27T14:26:25.715Z,31.70
2023-07-27T14:28:54.212Z,31.86
2023-07-27T14:31:22.775Z,31.48
2023-07-27T14:33:55.601Z,31.20
2023-07-27T14:36:24.844Z,31.01
2023-07-27T14:41:28.094Z,31.22
2023-07-27T14:43:57.196Z,31.56
2023-07-27T14:46:25.199Z,31.71
2023-07-27T14:48:53.472Z,31.78
2023-07-27T14:51:21.682Z,31.70
2023-07-27T14:53:51.777Z,31.68
2023-07-27T14:56:25.586Z,31.56
2023-07-27T14:58:56.462Z,31.75
2023-07-27T15:01:50.506Z,31.95
2023-07-27T15:06:55.054Z,32.11
2023-07-27T15:09:26.676Z,32.17
2023-07-27T15:11:56.874Z,32.05
2023-07-27T15:14:26.314Z,32.18
2023-07-27T15:16:54.212Z,31.72
2023-07-27T15:19:21.983Z,31.33
2023-07-27T15:21:52.611Z,31.37
2023-07-27T15:24:25.541Z,30.58
2023-07-27T15:26:54.698Z,30.19
2023-07-27T15:29:25.358Z,30.09
2023-07-27T15:31:54.555Z,29.89
2023-07-27T15:34:22.653Z,30.14
2023-07-27T15:36:50.654Z,30.22
2023-07-27T15:39:19.614Z,30.14
2023-07-27T15:41:47.546Z,30.03
2023-07-27T15:44:17.767Z,29.92
2023-07-27T15:46:45.424Z,29.86
2023-07-27T15:49:13.159Z,29.77
2023-07-27T15:51:40.710Z,29.49
2023-07-27T15:54:08.430Z,29.21
2023-07-27T15:56:37.179Z,29.14
2023-07-27T15:59:06.690Z,29.01
2023-07-27T16:01:35.579Z,29.14
2023-07-27T16:04:03.946Z,29.13
2023-07-27T16:06:33.470Z,28.96
2023-07-27T16:09:06.176Z,28.68
2023-07-27T16:11:34.402Z,28.68
2023-07-27T16:14:03.930Z,28.52
2023-07-27T16:16:32.956Z,28.59
2023-07-27T16:19:01.100Z,28.65
2023-07-27T16:21:29.147Z,28.37
2023-07-27T16:23:57.276Z,28.40
2023-07-27T16:26:26.916Z,28.46
2023-07-27T16:28:54.942Z,28.44
2023-07-27T16:31:23.267Z,28.23
2023-07-27T16:33:51.037Z,28.04
2023-07-27T16:36:18.888Z,28.05
2023-07-27T16:38:47.576Z,27.90
2023-07-27T16:41:16.463Z,27.93
2023-07-27T16:43:45.403Z,27.71
2023-07-27T16:46:13.402Z,27.73
2023-07-27T16:48:44.558Z,27.77
2023-07-27T16:51:12.142Z,27.83
2023-07-27T16:53:40.408Z,27.59
2023-07-27T16:56:13.871Z,27.51
2023-07-27T16:58:41.792Z,27.46
2023-07-27T17:01:22.380Z,27.41
2023-07-27T17:03:52.043Z,27.73
2023-07-27T17:06:20.923Z,27.58
2023-07-27T17:08:50.230Z,27.41
2023-07-27T17:11:18.782Z,27.32
2023-07-27T17:13:47.815Z,27.19
2023-07-27T17:16:18.969Z,27.46
2023-07-27T17:18:50.284Z,27.45
2023-07-27T17:21:19.074Z,26.99
2023-07-27T17:23:47.634Z,26.85
2023-07-27T17:26:17.551Z,26.62
2023-07-27T17:28:47.296Z,26.56
2023-07-27T17:31:16.281Z,26.19
2023-07-27T17:33:47.566Z,26.30
2023-07-27T17:36:17.180Z,26.03
2023-07-27T17:38:46.873Z,25.72
2023-07-27T17:41:18.710Z,25.88
2023-07-27T17:43:47.488Z,26.04
2023-07-27T17:46:15.220Z,25.71
2023-07-27T17:48:45.959Z,25.47
2023-07-27T17:51:14.568Z,25.44
2023-07-27T17:53:44.679Z,25.31
2023-07-27T17:56:13.232Z,25.23
2023-07-27T17:58:43.230Z,25.26
2023-07-27T18:01:11.754Z,25.37
2023-07-27T18:03:45.275Z,25.37
2023-07-27T18:06:16.911Z,25.12
2023-07-27T18:08:44.725Z,25.21
2023-07-27T18:11:16.547Z,25.23
2023-07-27T18:13:49.829Z,25.18
2023-07-27T18:16:24.953Z,25.04
2023-07-27T18:18:54.948Z,24.89
2023-07-27T18:21:26.437Z,24.85
2023-07-27T18:23:56.726Z,24.85
2023-07-27T18:26:28.635Z,24.70
2023-07-27T18:28:57.547Z,24.54
2023-07-27T18:31:27.363Z,24.43
2023-07-27T18:33:56.639Z,24.47
2023-07-27T18:36:44.449Z,24.56
2023-07-27T18:39:16.597Z,24.60
2023-07-27T18:41:46.764Z,24.25
2023-07-27T18:44:14.633Z,24.45
2023-07-27T18:47:02.332Z,24.16
2023-07-27T18:49:31.516Z,24.13
2023-07-27T18:52:02.868Z,24.00
2023-07-27T18:54:33.975Z,24.11
2023-07-27T18:57:21.792Z,23.99
2023-07-27T18:59:54.542Z,23.94
2023-07-27T19:02:23.289Z,23.98
2023-07-27T19:04:53.015Z,24.00
2023-07-27T19:07:26.800Z,23.94
2023-07-27T19:09:57.181Z,23.81
2023-07-27T19:12:25.122Z,23.85
2023-07-27T19:14:54.376Z,23.72
2023-07-27T19:17:23.956Z,23.83
2023-07-27T19:19:52.664Z,23.83
2023-07-27T19:22:21.586Z,23.63
2023-07-27T19:24:50.664Z,23.71
2023-07-27T19:27:20.284Z,23.49
2023-07-27T19:29:48.513Z,23.52
2023-07-27T19:32:16.259Z,23.48
2023-07-27T19:34:46.837Z,23.43
2023-07-27T19:37:15.204Z,23.40
2023-07-27T19:39:42.841Z,23.30
2023-07-27T19:42:12.906Z,23.27
2023-07-27T19:44:41.120Z,23.20
2023-07-27T19:47:12.678Z,23.17
2023-07-27T19:49:54.125Z,23.18
2023-07-27T19:52:30.703Z,23.19
2023-07-27T19:54:58.855Z,23.05
2023-07-27T19:57:27.584Z,23.10
2023-07-27T19:59:57.814Z,23.06
2023-07-27T20:02:30.826Z,23.12
2023-07-27T20:04:59.102Z,23.02
2023-07-27T20:07:26.852Z,22.85
2023-07-27T20:09:54.421Z,22.88
2023-07-27T20:12:22.164Z,22.85
2023-07-27T20:14:54.171Z,22.88
2023-07-27T20:17:21.869Z,22.78
2023-07-27T20:19:49.678Z,22.65
2023-07-27T20:22:17.385Z,22.78
2023-07-27T20:24:45.941Z,22.90
2023-07-27T20:27:13.726Z,22.59
2023-07-27T20:29:41.225Z,22.54
2023-07-27T20:32:10.542Z,22.54
2023-07-27T20:34:38.812Z,22.28
2023-07-27T20:37:06.577Z,22.25
2023-07-27T20:39:36.016Z,22.22
2023-07-27T20:42:05.623Z,22.35
2023-07-27T20:44:36.042Z,22.34
2023-07-27T20:47:05.320Z,22.32
2023-07-27T20:49:32.939Z,22.38
2023-07-27T20:52:00.688Z,22.17
2023-07-27T20:54:28.266Z,22.26
2023-07-27T20:56:56.848Z,22.22
2023-07-27T20:59:25.226Z,22.50
2023-07-27T21:01:52.749Z,22.49
2023-07-27T21:04:20.330Z,22.62
2023-07-27T21:06:47.805Z,22.40
2023-07-27T21:09:15.331Z,22.41
2023-07-27T21:11:42.878Z,22.11
2023-07-27T21:14:10.436Z,22.02
2023-07-27T21:16:38.262Z,22.12
2023-07-27T21:19:06.022Z,22.17
2023-07-27T21:21:33.527Z,22.00
2023-07-27T21:24:01.971Z,22.01
2023-07-27T21:26:29.632Z,22.09
2023-07-27T21:28:57.172Z,21.76
2023-07-27T21:31:25.117Z,21.94
2023-07-27T21:33:52.653Z,22.02
2023-07-27T21:36:20.365Z,21.82
2023-07-27T21:38:48.570Z,21.73
2023-07-27T21:41:16.211Z,21.37
2023-07-27T21:43:43.716Z,21.27
2023-07-27T21:46:11.285Z,21.11
2023-07-27T21:48:40.126Z,21.03
2023-07-27T21:51:08.956Z,21.06
2023-07-27T21:53:36.847Z,21.07
2023-07-27T21:56:04.673Z,20.87
2023-07-27T21:58:32.202Z,21.00
2023-07-27T22:00:59.721Z,20.90
2023-07-27T22:03:27.296Z,21.23
2023-07-27T22:05:54.931Z,21.06
2023-07-27T22:08:22.356Z,21.18
2023-07-27T22:10:49.821Z,20.87
2023-07-27T22:13:17.407Z,20.98
2023-07-27T22:15:44.942Z,20.96
2023-07-27T22:18:12.614Z,20.87
2023-07-27T22:20:44.955Z,20.80
2023-07-27T22:23:12.905Z,21.02
2023-07-27T22:25:44.968Z,20.97
2023-07-27T22:28:13.698Z,21.11
2023-07-27T22:30:48.587Z,20.94
2023-07-27T22:33:17.103Z,20.85
2023-07-27T22:35:48.844Z,20.80
2023-07-27T22:38:17.816Z,20.87
2023-07-27T22:40:58.127Z,20.83
2023-07-27T22:43:27.099Z,20.63
2023-07-27T22:45:58.940Z,20.80
2023-07-27T22:48:26.856Z,20.99
2023-07-27T22:50:57.014Z,20.84
2023-07-27T22:53:24.684Z,20.76
2023-07-27T22:55:52.794Z,21.13
2023-07-27T22:58:21.766Z,21.05
2023-07-27T23:00:49.528Z,20.98
2023-07-27T23:03:17.126Z,20.53
2023-07-27T23:05:44.681Z,20.41
2023-07-27T23:08:12.277Z,20.13
2023-07-27T23:10:40.514Z,20.09
2023-07-27T23:13:08.136Z,19.83
2023-07-27T23:15:36.657Z,19.77
2023-07-27T23:18:05.459Z,19.68
2023-07-27T23:20:33.102Z,19.69
2023-07-27T23:23:02.110Z,19.82
2023-07-27T23:25:29.761Z,19.79
2023-07-27T23:27:57.294Z,19.81
2023-07-27T23:30:24.901Z,19.74
2023-07-27T23:32:52.472Z,19.76
2023-07-27T23:35:20.182Z,20.04
2023-07-27T23:37:49.010Z,20.20
2023-07-27T23:40:17.694Z,20.11
2023-07-27T23:42:45.274Z,20.16
2023-07-27T23:45:12.749Z,20.30
2023-07-27T23:47:40.743Z,20.25
2023-07-27T23:50:08.797Z,19.99
2023-07-27T23:52:36.367Z,19.90
2023-07-27T23:55:04.163Z,19.91
2023-07-27T23:57:31.760Z,19.99
2023-07-27T23:59:59.233Z,20.17
